La Chaux-de-fonds, Switzerland

8:04 AM CET on February 20, 2017 (GMT +0100)
Les Allées | | Change Station

Elev 3382 ft 47.10 °N, 6.84 °E | Updated 2 minutes ago

Mostly Cloudy
Mostly Cloudy
30.9 °F
Feels Like 31 °F
N
0.6
Wind Variable Wind from NE
Gusts 1.9 mph

Today
High -- | Low -- °F
--% Chance of Precip.
Yesterday
High -- | Low -- °F
Precip. -- in
Pressure 30.21 in
Visibility 5.0 miles
Clouds Scattered Clouds 1200 ft
Mostly Cloudy 2400 ft
Windchill 31 °F
Dew Point 29 °F
Humidity 91%
Rainfall Not available.
Snow Depth Not available.
7:28 AM 6:04 PM
Last Quarter, 36% visible
METAR LSGC 200650Z 23002KT 8000 SCT012 BKN024 M01/M01 Q1023
Pressure 30.21 in
Visibility 5.0 miles
Clouds Scattered Clouds 1200 ft
Mostly Cloudy 2400 ft
Windchill 31 °F
Dew Point 29 °F
Humidity 91%
Rainfall Not available.
Snow Depth Not available.
7:28 AM 6:04 PM
Last Quarter, 36% visible
METAR LSGC 200650Z 23002KT 8000 SCT012 BKN024 M01/M01 Q1023

Get Your Daily Forecast Email!

Thanks for signing up!

Be on the lookout for a verification email in your inbox.

You'll start receiving the daily forecast at 8 AM.

×

10-Day Weather Forecast

×

Almanac

Astronomy

Feb. 20, 2017 Rise Set
Actual Time
Civil Twilight
Nautical Twilight
Astronomical Twilight
Moon
Length of Visible Light
Length of Day
Tomorrow will be .
, % of the Moon is Illuminated

Today's Extremes

Country Highs Country Lows

Community

WunderPhotos

Upload Photos

1,962,540 photos uploaded!

WunderBlog® & News

Nearby

Air Quality

  Air Quality AQ Index Pollutant
Not available.

Snow Depth

Station Depth Elevation

Earthquake Activity

City Distance Mag. Time & Date
Minimum magnitude displayed is 2.5.

Coastal Water Temperatures

Place Temperature

Stations

Nearby Weather Stations

Station Location Temp. Windchill Dew Point Humidity Wind Precip. Elev Updated Type